Time;durP1;ratioP1;P1;durP2;ratioP2;P2;SDS_P1;SDS_P2;PMS_P1;PMS_P2;Temp;Humidity;BMP_temperature;BMP_pressure;BME280_temperature;BME280_humidity;BME280_pressure;Samples;Min_cycle;Max_cycle;Signal;HPM_P1;HPM_P2
2023/09/07 00:02:18;;;;;;;7.03;4.65;;;26.20;77.10;;;;;;7388395;19;20021;-81
2023/09/07 00:04:47;;;;;;;12.93;5.22;;;26.20;77.40;;;;;;7409171;19;20010;-80
2023/09/07 00:07:18;;;;;;;8.68;4.90;;;26.10;77.30;;;;;;7386682;19;20363;-80
2023/09/07 00:09:48;;;;;;;9.25;4.97;;;26.10;77.00;;;;;;7390710;19;20023;-81
2023/09/07 00:12:17;;;;;;;6.22;4.30;;;26.10;77.00;;;;;;7389938;19;20069;-80
2023/09/07 00:14:46;;;;;;;8.43;4.43;;;26.00;76.90;;;;;;7390576;19;20006;-81
2023/09/07 00:17:15;;;;;;;6.68;4.47;;;26.00;76.80;;;;;;7412363;19;20010;-81
2023/09/07 00:19:44;;;;;;;6.70;4.40;;;26.00;76.80;;;;;;7393333;19;20054;-81
2023/09/07 00:22:12;;;;;;;8.95;4.70;;;26.00;76.60;;;;;;7391762;19;20007;-81
2023/09/07 00:24:44;;;;;;;11.40;4.20;;;26.00;76.60;;;;;;7387593;19;20018;-81
2023/09/07 00:27:13;;;;;;;9.38;4.53;;;25.90;76.60;;;;;;7387077;19;20011;-81
2023/09/07 00:29:42;;;;;;;12.30;4.88;;;25.90;76.70;;;;;;7386805;19;20026;-81
2023/09/07 00:32:13;;;;;;;9.10;4.68;;;25.90;76.70;;;;;;7406344;19;20013;-81
2023/09/07 00:34:42;;;;;;;9.48;4.40;;;25.90;76.70;;;;;;7387932;19;20007;-80
2023/09/07 00:37:11;;;;;;;10.10;4.40;;;25.90;76.70;;;;;;7383844;19;20038;-81
2023/09/07 00:39:39;;;;;;;6.38;4.32;;;25.80;76.70;;;;;;7386995;19;20014;-81
2023/09/07 00:42:11;;;;;;;9.63;4.72;;;25.80;76.70;;;;;;7388563;19;20397;-81
2023/09/07 00:44:40;;;;;;;9.18;3.90;;;25.80;77.30;;;;;;7387989;19;20010;-81
2023/09/07 00:47:08;;;;;;;9.45;4.60;;;25.80;77.40;;;;;;7407247;19;20002;-81
2023/09/07 00:49:37;;;;;;;8.13;4.20;;;25.70;78.20;;;;;;7386025;19;20354;-81
2023/09/07 00:52:07;;;;;;;7.25;4.00;;;25.70;77.80;;;;;;7386487;19;20010;-81
2023/09/07 00:54:38;;;;;;;9.57;4.70;;;25.70;77.90;;;;;;7384608;19;20002;-81
2023/09/07 00:57:10;;;;;;;11.23;4.78;;;25.70;78.00;;;;;;7387195;19;20276;-81
2023/09/07 00:59:42;;;;;;;6.65;4.30;;;25.60;77.90;;;;;;7384794;19;20006;-81
2023/09/07 01:02:12;;;;;;;6.13;4.47;;;25.50;77.80;;;;;;7404970;19;20010;-81
2023/09/07 01:04:42;;;;;;;6.40;4.40;;;25.40;77.60;;;;;;7385721;19;20017;-81
2023/09/07 01:07:20;;;;;;;8.85;4.68;;;25.40;77.20;;;;;;7389537;19;20009;-81
2023/09/07 01:09:54;;;;;;;5.70;4.22;;;25.30;77.00;;;;;;7390783;19;20034;-81
2023/09/07 01:12:25;;;;;;;7.95;4.07;;;25.30;77.10;;;;;;7390897;19;20023;-81
2023/09/07 01:14:54;;;;;;;9.00;4.40;;;25.20;76.90;;;;;;7387513;19;20400;-81
2023/09/07 01:17:23;;;;;;;6.28;4.05;;;25.20;76.90;;;;;;7384486;19;20024;-81
2023/09/07 01:19:52;;;;;;;7.93;4.68;;;25.20;76.90;;;;;;7409079;19;20024;-80
2023/09/07 01:22:25;;;;;;;10.90;5.82;;;25.10;76.80;;;;;;7404832;19;20003;-80
2023/09/07 01:24:55;;;;;;;8.77;4.15;;;25.10;76.80;;;;;;7406113;19;20058;-80
2023/09/07 01:27:24;;;;;;;5.37;3.90;;;25.10;76.90;;;;;;7405153;19;20398;-81
2023/09/07 01:29:55;;;;;;;8.70;4.57;;;25.10;76.80;;;;;;7395993;19;20003;-79
2023/09/07 01:32:25;;;;;;;7.03;4.38;;;25.00;76.90;;;;;;7387953;19;20517;-80
2023/09/07 01:34:59;;;;;;;7.85;4.10;;;25.10;77.20;;;;;;7403849;19;20503;-80
2023/09/07 01:37:30;;;;;;;11.27;4.45;;;25.10;77.30;;;;;;7382893;19;20280;-81
2023/09/07 01:40:01;;;;;;;6.75;4.47;;;25.10;77.80;;;;;;7383285;19;20006;-80
2023/09/07 01:42:32;;;;;;;6.90;4.18;;;25.10;77.90;;;;;;7383038;19;20385;-81
2023/09/07 01:45:00;;;;;;;10.40;4.40;;;25.10;77.90;;;;;;7383725;19;19999;-81
2023/09/07 01:47:29;;;;;;;10.05;4.40;;;25.10;77.90;;;;;;7381007;19;20007;-81
2023/09/07 01:50:01;;;;;;;10.90;4.32;;;25.10;78.00;;;;;;7403402;19;20010;-80
2023/09/07 01:52:32;;;;;;;8.65;4.68;;;25.10;78.00;;;;;;7382242;19;20047;-80
2023/09/07 01:55:01;;;;;;;7.07;4.47;;;25.10;78.00;;;;;;7381744;19;20006;-81
2023/09/07 01:57:32;;;;;;;9.07;4.57;;;25.00;77.60;;;;;;7383340;19;20006;-81
2023/09/07 02:00:01;;;;;;;7.28;4.43;;;25.00;77.10;;;;;;7383335;19;20025;-80
2023/09/07 02:02:34;;;;;;;10.00;4.32;;;25.00;76.80;;;;;;7388174;19;20357;-81
2023/09/07 02:05:07;;;;;;;7.43;4.53;;;24.90;77.50;;;;;;7410676;19;20007;-81
2023/09/07 02:07:41;;;;;;;9.00;5.00;;;24.90;77.30;;;;;;7385696;19;20049;-80
2023/09/07 02:10:11;;;;;;;6.45;4.22;;;24.70;77.80;;;;;;7383110;19;20003;-80
2023/09/07 02:12:51;;;;;;;10.20;4.40;;;24.70;78.00;;;;;;7382896;19;20010;-80
2023/09/07 02:15:23;;;;;;;10.25;5.13;;;24.60;78.10;;;;;;7386668;19;20007;-81
2023/09/07 02:17:52;;;;;;;7.78;4.55;;;24.60;78.10;;;;;;7391545;19;20011;-81
2023/09/07 02:20:23;;;;;;;9.48;4.68;;;24.60;78.20;;;;;;7383254;19;20023;-81
2023/09/07 02:22:59;;;;;;;12.07;4.43;;;24.60;78.00;;;;;;7404960;19;20002;-80
2023/09/07 02:25:30;;;;;;;9.10;4.93;;;24.50;77.60;;;;;;7383033;19;20014;-80
2023/09/07 02:28:05;;;;;;;7.95;4.93;;;24.50;77.60;;;;;;7384523;19;20006;-81
2023/09/07 02:30:39;;;;;;;9.57;4.65;;;24.60;77.70;;;;;;7382878;19;20003;-80
2023/09/07 02:33:14;;;;;;;11.80;4.82;;;24.60;77.70;;;;;;7383354;19;20011;-80
2023/09/07 02:35:43;;;;;;;6.90;4.47;;;24.60;77.30;;;;;;7382685;19;20006;-80
2023/09/07 02:38:16;;;;;;;9.82;4.82;;;24.60;77.60;;;;;;7405251;19;19999;-80
2023/09/07 02:40:47;;;;;;;6.45;4.53;;;24.50;77.60;;;;;;7382875;19;20014;-81
2023/09/07 02:43:16;;;;;;;9.77;4.63;;;24.50;78.00;;;;;;7381265;19;20264;-80
2023/09/07 02:45:46;;;;;;;8.52;5.07;;;24.40;78.20;;;;;;7381418;19;20011;-80
2023/09/07 02:48:15;;;;;;;8.38;4.80;;;24.40;78.30;;;;;;7382010;19;20011;-81
2023/09/07 02:50:45;;;;;;;7.53;4.53;;;24.40;78.50;;;;;;7380587;19;20010;-80
2023/09/07 02:53:16;;;;;;;8.55;4.15;;;24.30;78.80;;;;;;7407138;19;20108;-80
2023/09/07 02:55:45;;;;;;;9.00;4.68;;;24.30;78.90;;;;;;7386482;19;20007;-80
2023/09/07 02:58:22;;;;;;;9.00;4.72;;;24.30;78.60;;;;;;7383740;19;20223;-80
2023/09/07 03:00:53;;;;;;;13.00;4.55;;;24.30;78.60;;;;;;7388880;19;20006;-80
2023/09/07 03:03:23;;;;;;;9.27;4.70;;;24.30;79.20;;;;;;7389188;19;20026;-80
2023/09/07 03:05:52;;;;;;;9.57;4.63;;;24.30;78.20;;;;;;7391725;19;20429;-80
2023/09/07 03:08:26;;;;;;;7.38;4.97;;;24.30;77.90;;;;;;7411315;19;20055;-82
2023/09/07 03:10:55;;;;;;;9.88;4.90;;;24.20;78.00;;;;;;7431422;19;20011;-81
2023/09/07 03:13:24;;;;;;;9.73;4.53;;;24.10;77.80;;;;;;7412034;19;20006;-80
2023/09/07 03:15:56;;;;;;;9.73;4.47;;;24.10;77.50;;;;;;7406061;19;20294;-81
2023/09/07 03:18:28;;;;;;;7.00;4.18;;;24.00;77.60;;;;;;7389748;19;20014;-80
2023/09/07 03:20:58;;;;;;;9.38;4.95;;;24.10;77.80;;;;;;7389656;19;20002;-80
2023/09/07 03:23:30;;;;;;;12.40;4.32;;;24.10;77.80;;;;;;7392271;19;20006;-79
2023/09/07 03:26:03;;;;;;;10.75;4.68;;;24.00;78.30;;;;;;7408726;19;20002;-80
2023/09/07 03:28:34;;;;;;;12.57;5.20;;;24.00;79.20;;;;;;7388554;19;20015;-81
2023/09/07 03:31:06;;;;;;;8.32;4.63;;;24.00;78.40;;;;;;7388371;19;20360;-81
2023/09/07 03:33:35;;;;;;;6.05;4.70;;;24.00;78.60;;;;;;7390156;19;20010;-81
2023/09/07 03:36:03;;;;;;;12.75;4.43;;;23.90;78.50;;;;;;7389830;19;20073;-81
2023/09/07 03:38:41;;;;;;;10.30;5.13;;;23.90;78.20;;;;;;7389534;19;20010;-81
2023/09/07 03:41:10;;;;;;;13.20;5.00;;;24.00;78.20;;;;;;7410636;19;20096;-81
2023/09/07 03:43:39;;;;;;;10.27;4.63;;;24.00;78.10;;;;;;7391601;19;19999;-80
2023/09/07 03:46:09;;;;;;;10.45;5.63;;;24.00;78.10;;;;;;7393148;19;20014;-81
2023/09/07 03:48:45;;;;;;;7.63;5.03;;;24.00;78.10;;;;;;7390271;19;20009;-81
2023/09/07 03:51:16;;;;;;;7.97;5.13;;;24.00;78.00;;;;;;7385831;19;20003;-82
2023/09/07 03:53:48;;;;;;;8.15;4.88;;;24.00;77.90;;;;;;7384081;19;19998;-80
2023/09/07 03:56:17;;;;;;;11.07;4.75;;;24.00;77.80;;;;;;7391754;19;20021;-81
2023/09/07 03:58:51;;;;;;;10.02;5.32;;;24.00;78.10;;;;;;7406896;19;20003;-80
2023/09/07 04:01:21;;;;;;;9.80;5.40;;;24.00;78.20;;;;;;7385901;19;20003;-80
2023/09/07 04:03:50;;;;;;;10.00;5.05;;;23.90;78.00;;;;;;7385414;19;20002;-81
2023/09/07 04:06:19;;;;;;;11.68;4.53;;;23.90;77.80;;;;;;7387346;19;20007;-80
2023/09/07 04:08:58;;;;;;;12.85;5.05;;;23.90;77.50;;;;;;7386741;19;20016;-80
2023/09/07 04:11:29;;;;;;;10.05;4.90;;;23.90;77.90;;;;;;7385790;19;20027;-81
2023/09/07 04:13:57;;;;;;;12.60;4.93;;;23.90;78.30;;;;;;7408030;19;20025;-81
2023/09/07 04:16:26;;;;;;;8.52;5.07;;;23.80;78.30;;;;;;7384987;19;20014;-81
2023/09/07 04:18:56;;;;;;;9.82;5.00;;;23.80;78.40;;;;;;7385073;19;20011;-80
2023/09/07 04:21:29;;;;;;;9.40;4.85;;;23.70;78.40;;;;;;7389594;19;20010;-81
2023/09/07 04:24:01;;;;;;;17.73;5.20;;;23.70;78.50;;;;;;7387713;19;20018;-81
2023/09/07 04:26:31;;;;;;;12.65;4.75;;;23.70;78.50;;;;;;7387411;19;20101;-81
2023/09/07 04:28:59;;;;;;;12.35;5.32;;;23.70;78.20;;;;;;7407974;19;20013;-81
2023/09/07 04:31:29;;;;;;;18.70;5.07;;;23.70;78.10;;;;;;7386945;19;20026;-81
2023/09/07 04:33:58;;;;;;;8.43;5.38;;;23.70;78.30;;;;;;7387081;19;20094;-80
2023/09/07 04:36:26;;;;;;;11.55;5.00;;;23.80;78.40;;;;;;7387292;19;20018;-80
2023/09/07 04:38:55;;;;;;;11.52;5.25;;;23.80;78.20;;;;;;7386211;19;20216;-79
2023/09/07 04:41:28;;;;;;;13.85;5.28;;;23.70;78.10;;;;;;7383354;19;20006;-80
2023/09/07 04:43:57;;;;;;;9.35;5.78;;;23.70;78.20;;;;;;7405197;19;20010;-82
2023/09/07 04:46:26;;;;;;;12.90;5.88;;;23.70;78.30;;;;;;7384325;19;20002;-80
2023/09/07 04:48:55;;;;;;;10.85;5.32;;;23.70;78.30;;;;;;7384511;19;20054;-81
2023/09/07 04:51:27;;;;;;;10.85;5.10;;;23.70;78.30;;;;;;7386028;19;20077;-81
2023/09/07 04:53:56;;;;;;;9.80;5.05;;;23.70;78.00;;;;;;7388006;19;20007;-81
2023/09/07 04:56:33;;;;;;;13.73;5.03;;;23.70;77.70;;;;;;7384705;19;20007;-81
2023/09/07 04:59:03;;;;;;;9.77;5.13;;;23.70;78.10;;;;;;7406133;19;20007;-81
2023/09/07 05:01:34;;;;;;;12.00;5.20;;;23.60;78.50;;;;;;7388044;19;20221;-81
2023/09/07 05:04:05;;;;;;;21.20;5.25;;;23.50;78.80;;;;;;7393376;19;20006;-80
2023/09/07 05:06:37;;;;;;;12.32;5.38;;;23.50;79.10;;;;;;7385712;19;20015;-81
2023/09/07 05:09:06;;;;;;;11.63;5.25;;;23.40;79.40;;;;;;7384638;19;20011;-81
2023/09/07 05:11:37;;;;;;;13.27;4.72;;;23.30;79.10;;;;;;7384691;19;20030;-81
2023/09/07 05:14:14;;;;;;;9.02;4.80;;;23.30;79.20;;;;;;7404096;19;20364;-81
2023/09/07 05:16:45;;;;;;;8.68;4.82;;;23.30;79.40;;;;;;7384898;19;20002;-80
2023/09/07 05:19:14;;;;;;;8.88;4.43;;;23.40;79.40;;;;;;7382995;19;20424;-81
2023/09/07 05:21:42;;;;;;;9.23;4.93;;;23.40;79.40;;;;;;7383741;19;20011;-80
2023/09/07 05:24:11;;;;;;;8.48;5.68;;;23.40;79.40;;;;;;7384466;19;20006;-80
2023/09/07 05:26:44;;;;;;;12.18;5.57;;;23.40;80.30;;;;;;7389396;19;20388;-81
2023/09/07 05:29:17;;;;;;;15.00;5.90;;;23.40;79.70;;;;;;7409094;19;20041;-81
2023/09/07 05:31:45;;;;;;;11.13;6.00;;;23.40;79.70;;;;;;7384284;19;20007;-81
2023/09/07 05:34:14;;;;;;;15.02;5.60;;;23.40;79.60;;;;;;7382780;19;20026;-80
2023/09/07 05:36:43;;;;;;;15.05;5.55;;;23.40;79.00;;;;;;7382408;19;20078;-80
2023/09/07 05:39:13;;;;;;;20.35;6.00;;;23.40;79.20;;;;;;7385569;19;20037;-80
2023/09/07 05:41:45;;;;;;;18.50;6.25;;;23.40;79.10;;;;;;7383750;19;20037;-81
2023/09/07 05:44:15;;;;;;;17.98;6.65;;;23.40;79.00;;;;;;7406001;19;20026;-81
2023/09/07 05:46:43;;;;;;;18.90;6.22;;;23.40;79.10;;;;;;7384902;19;20045;-81
2023/09/07 05:49:12;;;;;;;17.30;6.25;;;23.50;79.00;;;;;;7383483;19;20015;-80
2023/09/07 05:51:43;;;;;;;11.13;5.13;;;23.50;79.00;;;;;;7383864;19;20263;-81
2023/09/07 05:54:12;;;;;;;10.90;5.80;;;23.50;79.20;;;;;;7382292;19;20007;-81
2023/09/07 05:56:42;;;;;;;15.32;6.20;;;23.50;79.30;;;;;;7381434;19;20007;-81
2023/09/07 05:59:17;;;;;;;14.00;6.10;;;23.50;79.50;;;;;;7403414;19;20346;-81
2023/09/07 06:01:47;;;;;;;20.17;6.97;;;23.50;79.70;;;;;;7382525;19;20030;-81
2023/09/07 06:04:16;;;;;;;13.40;5.93;;;23.50;80.00;;;;;;7382431;19;20022;-79
2023/09/07 06:06:45;;;;;;;15.60;6.18;;;23.50;80.20;;;;;;7383397;19;20034;-80
2023/09/07 06:09:14;;;;;;;18.67;6.07;;;23.50;80.20;;;;;;7381079;19;20023;-80
2023/09/07 06:11:43;;;;;;;14.23;6.10;;;23.50;80.20;;;;;;7382695;19;20030;-81
2023/09/07 06:14:18;;;;;;;13.15;5.53;;;23.60;80.10;;;;;;7408155;19;20034;-81
2023/09/07 06:16:47;;;;;;;16.02;6.10;;;23.60;79.90;;;;;;7389722;19;20011;-80
2023/09/07 06:19:18;;;;;;;16.20;5.85;;;23.70;79.90;;;;;;7383078;19;19998;-80
2023/09/07 06:21:50;;;;;;;15.65;5.63;;;23.70;79.90;;;;;;7380986;19;20544;-80
2023/09/07 06:24:19;;;;;;;14.40;5.70;;;23.70;80.00;;;;;;7380286;19;20003;-80
2023/09/07 06:26:50;;;;;;;14.10;5.95;;;23.70;80.20;;;;;;7380668;19;20034;-81
2023/09/07 06:29:24;;;;;;;11.73;5.35;;;23.80;80.30;;;;;;7379933;19;20279;-81
2023/09/07 06:31:53;;;;;;;19.55;5.55;;;23.80;80.50;;;;;;7403750;19;20019;-81
2023/09/07 06:34:22;;;;;;;10.68;6.13;;;23.80;80.60;;;;;;7383240;19;20007;-81
2023/09/07 06:36:51;;;;;;;17.05;5.32;;;23.90;80.60;;;;;;7387785;19;20574;-80
2023/09/07 06:39:20;;;;;;;14.32;6.75;;;24.00;80.70;;;;;;7389412;19;20010;-80
2023/09/07 06:41:49;;;;;;;15.30;6.38;;;24.00;80.80;;;;;;7389855;19;20052;-81
2023/09/07 06:44:23;;;;;;;19.35;6.50;;;24.00;80.90;;;;;;7396863;19;20342;-82
2023/09/07 06:46:52;;;;;;;12.50;6.30;;;24.10;81.60;;;;;;7419414;19;20018;-80
2023/09/07 06:49:23;;;;;;;14.38;6.25;;;24.10;80.90;;;;;;7400868;19;20006;-82
2023/09/07 06:51:58;;;;;;;18.42;7.53;;;24.10;80.80;;;;;;7397235;19;20034;-80
2023/09/07 06:54:30;;;;;;;16.30;6.80;;;24.20;80.90;;;;;;7386738;19;20007;-80
2023/09/07 06:57:01;;;;;;;16.00;6.63;;;24.30;80.80;;;;;;7385576;19;20019;-80
2023/09/07 06:59:39;;;;;;;12.85;6.15;;;24.30;80.70;;;;;;7388787;19;20014;-81
2023/09/07 07:02:10;;;;;;;15.45;6.32;;;24.40;80.70;;;;;;7414820;19;20007;-81
2023/09/07 07:04:41;;;;;;;17.63;7.15;;;24.40;80.60;;;;;;7393601;19;20014;-81
2023/09/07 07:07:12;;;;;;;18.80;7.15;;;24.50;80.70;;;;;;7389113;19;20006;-80
2023/09/07 07:09:43;;;;;;;;;;;24.60;80.70;;;;;;7391020;19;19998;-80
2023/09/07 07:12:17;;;;;;;16.95;6.57;;;24.70;80.70;;;;;;7387590;19;19923;-79
2023/09/07 07:14:48;;;;;;;19.50;6.82;;;24.70;80.50;;;;;;7384710;19;20003;-81
2023/09/07 07:17:19;;;;;;;15.43;6.60;;;24.80;80.50;;;;;;7392807;19;20066;-81
2023/09/07 07:19:48;;;;;;;10.93;6.43;;;24.90;80.50;;;;;;7404438;19;20027;-80
2023/09/07 07:22:17;;;;;;;15.82;6.53;;;24.90;80.30;;;;;;7386701;19;20003;-80
2023/09/07 07:24:46;;;;;;;17.80;7.32;;;25.00;80.50;;;;;;7388689;19;20031;-80
2023/09/07 07:27:19;;;;;;;14.90;6.53;;;25.00;80.70;;;;;;7384396;19;20026;-80
2023/09/07 07:29:51;;;;;;;17.13;6.85;;;25.10;81.10;;;;;;7383973;19;20009;-81
2023/09/07 07:32:24;;;;;;;14.48;6.82;;;25.20;81.40;;;;;;7384536;19;20011;-81
2023/09/07 07:34:53;;;;;;;15.70;7.20;;;25.20;81.90;;;;;;7405433;19;20029;-80
2023/09/07 07:37:26;;;;;;;15.35;6.90;;;25.30;81.50;;;;;;7385678;19;20007;-82
2023/09/07 07:39:58;;;;;;;15.43;7.18;;;25.30;81.30;;;;;;7385210;19;20020;-82
2023/09/07 07:42:33;;;;;;;9.80;6.35;;;25.40;81.30;;;;;;7385867;19;20014;-80
2023/09/07 07:45:14;;;;;;;12.18;6.47;;;25.40;81.10;;;;;;7394340;19;20034;-81
2023/09/07 07:47:50;;;;;;;18.30;7.05;;;25.50;80.60;;;;;;7394028;19;20011;-81
2023/09/07 07:50:23;;;;;;;14.57;7.65;;;25.60;80.00;;;;;;7385221;19;20026;-81
2023/09/07 07:52:58;;;;;;;20.20;7.13;;;25.70;79.80;;;;;;7408560;19;20256;-81
2023/09/07 07:55:30;;;;;;;15.63;6.65;;;25.70;79.70;;;;;;7387928;19;20015;-80
2023/09/07 07:58:00;;;;;;;10.88;7.07;;;25.80;79.30;;;;;;7387659;19;20042;-81
2023/09/07 08:00:34;;;;;;;12.27;6.75;;;25.80;78.60;;;;;;7387039;19;20006;-80
2023/09/07 08:03:05;;;;;;;15.63;7.38;;;25.90;78.20;;;;;;7383657;19;20007;-80
2023/09/07 08:05:35;;;;;;;17.40;7.40;;;25.90;77.70;;;;;;7385768;19;20069;-81
2023/09/07 08:08:08;;;;;;;16.85;7.22;;;26.00;77.10;;;;;;7405458;19;20011;-81
2023/09/07 08:10:45;;;;;;;15.25;7.50;;;26.00;76.80;;;;;;7386631;19;20022;-80
2023/09/07 08:13:19;;;;;;;21.27;9.05;;;26.10;77.00;;;;;;7386528;19;20230;-81
2023/09/07 08:15:58;;;;;;;24.33;9.32;;;26.10;77.00;;;;;;7385733;19;20014;-81
2023/09/07 08:18:30;;;;;;;19.27;8.32;;;26.20;76.80;;;;;;7383785;19;20007;-81
2023/09/07 08:21:04;;;;;;;;;;;26.20;76.50;;;;;;7385705;19;20029;-81
2023/09/07 08:23:36;;;;;;;17.20;7.45;;;26.30;76.50;;;;;;7382566;19;20217;-81
2023/09/07 08:26:05;;;;;;;15.07;7.15;;;26.30;75.90;;;;;;7408776;19;20029;-80
2023/09/07 08:28:39;;;;;;;14.73;6.95;;;26.30;75.80;;;;;;7390854;19;20005;-81
2023/09/07 08:31:22;;;;;;;23.90;6.97;;;26.40;75.80;;;;;;7387216;19;20259;-80
2023/09/07 08:33:54;;;;;;;16.23;6.50;;;26.40;75.80;;;;;;7384180;19;20038;-81
2023/09/07 08:36:29;;;;;;;15.00;6.63;;;26.40;75.70;;;;;;7385631;19;20011;-81
2023/09/07 08:39:07;;;;;;;12.43;6.35;;;26.40;75.20;;;;;;7387911;19;20014;-81
2023/09/07 08:41:46;;;;;;;14.20;6.13;;;26.40;74.90;;;;;;7390232;19;20023;-81
2023/09/07 08:44:25;;;;;;;15.00;5.80;;;26.50;74.80;;;;;;7407991;19;20010;-82
2023/09/07 08:46:58;;;;;;;16.55;6.32;;;26.50;74.60;;;;;;7386576;19;20380;-82
2023/09/07 08:49:27;;;;;;;12.10;6.50;;;26.50;74.60;;;;;;7383537;19;20003;-81
2023/09/07 08:51:58;;;;;;;17.05;6.15;;;26.50;74.90;;;;;;7386357;19;20404;-81
2023/09/07 08:54:32;;;;;;;;;;;26.60;75.20;;;;;;7386328;19;20009;-80
2023/09/07 08:57:09;;;;;;;17.48;6.00;;;26.60;75.20;;;;;;7385858;19;19934;-81
2023/09/07 08:59:49;;;;;;;17.65;5.65;;;26.60;75.00;;;;;;7383826;19;20000;-81
2023/09/07 09:02:23;;;;;;;16.15;5.95;;;26.60;74.60;;;;;;7387921;19;20010;-81
2023/09/07 09:05:03;;;;;;;14.82;6.30;;;26.70;75.20;;;;;;7404381;19;20030;-81
2023/09/07 09:10:23;;;;;;;18.52;5.93;;;26.70;73.80;;;;;;7389066;19;20014;-81
2023/09/07 09:12:59;;;;;;;11.90;5.63;;;26.70;73.70;;;;;;7390820;19;20026;-81
2023/09/07 09:15:33;;;;;;;14.05;5.45;;;26.70;73.80;;;;;;7384206;19;20239;-81
2023/09/07 09:18:17;;;;;;;15.75;5.75;;;26.70;74.10;;;;;;7382147;19;20003;-81
2023/09/07 09:20:50;;;;;;;13.02;6.10;;;26.70;73.90;;;;;;7380886;19;20006;-82
2023/09/07 09:23:22;;;;;;;20.23;6.78;;;26.80;74.00;;;;;;7383519;19;20007;-81
2023/09/07 09:25:53;;;;;;;10.60;5.63;;;26.80;74.00;;;;;;7402860;19;20346;-81
2023/09/07 09:28:26;;;;;;;11.60;5.70;;;26.80;74.10;;;;;;7382563;19;20006;-81
2023/09/07 09:31:00;;;;;;;12.82;5.90;;;26.80;74.30;;;;;;7382782;19;20006;-81
2023/09/07 09:33:33;;;;;;;13.38;6.20;;;26.90;74.20;;;;;;7384099;19;20019;-80
2023/09/07 09:36:03;;;;;;;12.43;5.90;;;26.90;73.90;;;;;;7386473;19;20010;-80
2023/09/07 09:38:33;;;;;;;20.42;5.30;;;26.90;73.70;;;;;;7382059;19;20003;-81
2023/09/07 09:41:04;;;;;;;9.90;5.30;;;27.00;73.40;;;;;;7404955;19;20295;-81
2023/09/07 09:43:40;;;;;;;10.20;5.20;;;27.00;73.70;;;;;;7383835;19;20090;-80
2023/09/07 09:46:17;;;;;;;16.85;5.55;;;27.00;73.80;;;;;;7382790;19;20353;-80
2023/09/07 09:48:54;;;;;;;18.80;5.60;;;27.00;73.50;;;;;;7383609;19;20003;-80
2023/09/07 09:51:33;;;;;;;13.50;5.72;;;27.00;73.10;;;;;;7381931;19;20011;-82
2023/09/07 09:54:11;;;;;;;17.58;5.88;;;27.00;73.10;;;;;;7381830;19;20003;-81
2023/09/07 09:56:48;;;;;;;15.35;5.88;;;27.00;73.60;;;;;;7385509;19;20002;-80
2023/09/07 09:59:25;;;;;;;16.35;6.40;;;27.00;73.30;;;;;;7393961;19;20028;-80
2023/09/07 10:01:57;;;;;;;16.55;6.78;;;27.10;72.90;;;;;;7408588;19;20015;-82
2023/09/07 10:04:36;;;;;;;;;;;27.10;72.90;;;;;;7385778;19;20014;-82
2023/09/07 10:07:16;;;;;;;12.45;6.30;;;27.10;73.20;;;;;;7386779;19;19910;-81
2023/09/07 10:09:49;;;;;;;19.20;6.63;;;27.10;73.20;;;;;;7386944;19;20066;-82
2023/09/07 10:12:26;;;;;;;13.07;6.68;;;27.10;73.10;;;;;;7388214;19;19999;-82
2023/09/07 10:14:59;;;;;;;17.00;7.32;;;27.20;72.70;;;;;;7388287;19;20017;-82
2023/09/07 10:17:30;;;;;;;21.45;8.18;;;27.20;72.30;;;;;;7387523;19;20062;-82
2023/09/07 10:20:22;;;;;;;20.17;7.40;;;27.10;72.70;;;;;;7408684;19;20030;-82
2023/09/07 10:23:13;;;;;;;17.65;6.60;;;27.20;72.80;;;;;;7389773;19;20099;-82
2023/09/07 10:25:44;;;;;;;10.65;5.78;;;27.20;72.50;;;;;;7389250;19;20034;-82
2023/09/07 10:28:30;;;;;;;;;;;27.20;72.00;;;;;;7390281;19;20010;-81
2023/09/07 10:31:07;;;;;;;12.57;5.90;;;27.30;72.10;;;;;;7394575;19;19918;-82
2023/09/07 10:33:40;;;;;;;12.40;5.28;;;27.30;72.20;;;;;;7397763;19;20003;-81
2023/09/07 10:36:25;;;;;;;13.68;5.63;;;27.30;72.20;;;;;;7395207;19;20235;-81
2023/09/07 10:39:09;;;;;;;16.17;5.50;;;27.40;72.10;;;;;;7395466;19;20091;-81
2023/09/07 10:41:48;;;;;;;12.68;5.95;;;27.40;71.90;;;;;;7388025;19;20172;-82
2023/09/07 10:44:38;;;;;;;17.02;5.93;;;27.50;72.00;;;;;;7390139;19;20003;-81
2023/09/07 10:47:21;;;;;;;16.60;5.78;;;27.50;71.60;;;;;;7411055;19;20259;-81
2023/09/07 10:49:58;;;;;;;10.52;5.72;;;27.60;71.30;;;;;;7388852;19;20031;-80
2023/09/07 10:55:24;;;;;;;15.73;5.43;;;27.70;70.70;;;;;;7387715;19;20011;-79
2023/09/07 10:58:04;;;;;;;19.20;5.68;;;27.70;70.80;;;;;;7387529;19;20034;-80
2023/09/07 11:00:33;;;;;;;15.57;5.85;;;27.80;71.20;;;;;;7389298;19;20003;-80
2023/09/07 11:03:14;;;;;;;23.27;5.80;;;27.80;71.10;;;;;;7391025;19;20013;-80
2023/09/07 11:05:56;;;;;;;17.65;5.43;;;27.90;70.80;;;;;;7387437;19;20369;-80
2023/09/07 11:08:36;;;;;;;16.83;5.47;;;28.00;70.70;;;;;;7389229;19;20003;-80
2023/09/07 11:11:07;;;;;;;9.27;5.32;;;28.00;69.40;;;;;;7411783;19;20017;-81
2023/09/07 11:13:42;;;;;;;11.70;5.80;;;28.00;69.70;;;;;;7388505;19;20091;-82
2023/09/07 11:16:13;;;;;;;16.85;5.38;;;28.10;69.30;;;;;;7387997;19;20397;-81
2023/09/07 11:18:49;;;;;;;13.00;5.07;;;28.20;68.50;;;;;;7387682;19;20046;-81
2023/09/07 11:21:22;;;;;;;9.35;4.93;;;28.20;68.50;;;;;;7385208;19;20011;-81
2023/09/07 11:23:58;;;;;;;18.85;5.00;;;28.30;68.60;;;;;;7386735;19;20002;-81
2023/09/07 11:26:46;;;;;;;10.90;4.55;;;28.30;67.20;;;;;;7385977;19;20310;-82
2023/09/07 11:29:22;;;;;;;15.07;5.43;;;28.30;66.70;;;;;;7410242;19;20003;-81
2023/09/07 11:32:12;;;;;;;17.55;5.35;;;28.40;66.60;;;;;;7388095;19;20015;-80
2023/09/07 11:34:58;;;;;;;10.38;5.60;;;28.40;67.10;;;;;;7388837;19;20384;-83
2023/09/07 11:40:25;;;;;;;13.57;5.38;;;28.50;67.80;;;;;;7394022;19;20048;-81
2023/09/07 11:43:03;;;;;;;14.35;5.93;;;28.70;67.90;;;;;;7389136;19;20354;-80
2023/09/07 11:45:42;;;;;;;13.50;5.40;;;28.70;68.00;;;;;;7387293;19;20015;-80
2023/09/07 11:48:25;;;;;;;12.77;6.05;;;28.70;68.30;;;;;;7387032;19;20007;-80
2023/09/07 11:50:58;;;;;;;15.07;4.97;;;28.80;68.10;;;;;;7389831;19;20236;-80
2023/09/07 11:53:33;;;;;;;12.00;5.57;;;28.80;67.80;;;;;;7386677;19;20354;-82
2023/09/07 11:56:10;;;;;;;16.02;6.05;;;28.90;67.60;;;;;;7408906;19;20037;-81
2023/09/07 11:58:45;;;;;;;15.40;6.22;;;28.90;67.40;;;;;;7386678;19;20003;-81
2023/09/07 12:01:33;;;;;;;20.02;5.80;;;29.00;67.50;;;;;;7386988;19;20385;-81
2023/09/07 12:04:04;;;;;;;16.73;5.38;;;29.10;67.80;;;;;;7388764;19;20030;-84
2023/09/07 12:06:40;;;;;;;;;;;29.10;67.30;;;;;;7390574;19;20010;-81
2023/09/07 12:09:30;;;;;;;;;;;;;;;;;;;;;
2023/09/07 12:12:16;;;;;;;14.93;5.93;;;29.30;66.80;;;;;;7386422;19;20034;-82
2023/09/07 12:15:11;;;;;;;10.85;5.22;;;29.40;65.70;;;;;;7384960;19;20006;-81
2023/09/07 12:17:54;;;;;;;16.80;5.45;;;29.40;65.70;;;;;;7388096;19;20027;-81
2023/09/07 12:20:39;;;;;;;11.57;5.57;;;29.50;65.50;;;;;;7391905;19;20007;-83
2023/09/07 12:25:55;;;;;;;9.70;5.20;;;29.60;65.70;;;;;;7395018;19;20029;-80
2023/09/07 12:28:32;;;;;;;14.27;5.55;;;29.60;65.80;;;;;;7385815;19;20003;-81
2023/09/07 12:31:09;;;;;;;14.15;5.53;;;29.70;65.50;;;;;;7384952;19;20220;-80
2023/09/07 12:33:51;;;;;;;14.55;5.15;;;29.80;65.00;;;;;;7383270;19;19999;-81
2023/09/07 12:36:30;;;;;;;12.38;5.63;;;29.90;64.70;;;;;;7385138;19;20250;-81
2023/09/07 12:39:12;;;;;;;15.15;5.43;;;30.00;64.90;;;;;;7384612;19;20063;-82
2023/09/07 12:42:01;;;;;;;9.63;5.25;;;30.10;64.90;;;;;;7383919;19;20238;-80
2023/09/07 12:44:37;;;;;;;16.52;5.68;;;30.10;64.20;;;;;;7386673;19;20225;-80
2023/09/07 12:47:12;;;;;;;16.88;5.60;;;30.20;63.80;;;;;;7412405;19;20014;-80
2023/09/07 12:49:49;;;;;;;14.88;5.72;;;30.30;63.00;;;;;;7387018;19;20003;-80
2023/09/07 12:52:35;;;;;;;17.27;5.43;;;30.40;62.70;;;;;;7385657;19;20007;-80
2023/09/07 12:58:17;;;;;;;;;;;;;;;;;;;;;
2023/09/07 13:04:13;;;;;;;10.20;4.90;;;30.60;62.70;;;;;;7383750;19;20552;-81
2023/09/07 13:07:22;;;;;;;15.32;5.40;;;30.80;62.70;;;;;;7385091;19;20018;-82
2023/09/07 13:10:18;;;;;;;15.63;5.07;;;30.90;62.50;;;;;;7386429;19;20014;-81
2023/09/07 13:19:43;;;;;;;;;;;;;;;;;;;;;
2023/09/07 13:25:38;;;;;;;9.77;4.05;;;31.00;60.20;;;;;;7381486;19;19998;-81
2023/09/07 13:28:37;;;;;;;18.92;4.75;;;31.10;59.50;;;;;;7360968;19;20016;-81
2023/09/07 13:31:57;;;;;;;;;;;;;;;;;;;;;
2023/09/07 13:38:49;;;;;;;11.63;4.43;;;31.30;57.30;;;;;;7380574;19;20010;-80
2023/09/07 13:42:01;;;;;;;15.60;4.57;;;31.30;57.30;;;;;;7278781;19;2004311;-80
2023/09/07 13:48:17;;;;;;;23.77;4.40;;;31.40;57.70;;;;;;7379955;19;19999;-81
2023/09/07 13:51:37;;;;;;;;;;;;;;;;;;;;;
2023/09/07 13:55:05;;;;;;;12.37;4.37;;;31.50;57.40;;;;;;7381535;19;19999;-81
2023/09/07 14:14:48;;;;;;;9.55;4.20;;;31.70;57.00;;;;;;7063057;19;6930605;-81
2023/09/07 14:23:55;;;;;;;8.18;3.72;;;32.10;55.20;;;;;;7414922;19;20242;-82